createdAt,value
2019-03-09T00:01:54.526Z,25.57
2019-03-09T00:04:25.165Z,22.20
2019-03-09T00:06:55.714Z,26.37
2019-03-09T00:09:26.202Z,31.00
2019-03-09T00:11:56.854Z,22.33
2019-03-09T00:14:27.406Z,27.80
2019-03-09T00:16:57.896Z,27.37
2019-03-09T00:19:28.395Z,18.97
2019-03-09T00:21:58.901Z,21.40
2019-03-09T00:24:45.096Z,26.23
2019-03-09T00:27:34.626Z,22.90
2019-03-09T00:30:36.593Z,27.33
2019-03-09T00:33:07.199Z,29.57
2019-03-09T00:35:37.624Z,24.50
2019-03-09T00:38:08.283Z,23.40
2019-03-09T00:40:38.721Z,23.90
2019-03-09T00:43:09.169Z,28.87
2019-03-09T00:45:39.576Z,20.37
2019-03-09T00:48:10.115Z,18.83
2019-03-09T00:50:40.663Z,19.17
2019-03-09T00:53:11.166Z,22.20
2019-03-09T00:55:42.547Z,17.60
2019-03-09T00:58:12.992Z,17.07
2019-03-09T01:00:45.038Z,17.53
2019-03-09T01:03:15.540Z,15.47
2019-03-09T01:05:46.209Z,18.03
2019-03-09T01:08:16.685Z,17.57
2019-03-09T01:10:47.083Z,16.73
2019-03-09T01:13:17.613Z,22.33
2019-03-09T01:15:48.074Z,15.27
2019-03-09T01:18:18.629Z,14.87
2019-03-09T01:20:49.078Z,18.13
2019-03-09T01:23:19.545Z,16.37
2019-03-09T01:25:50.058Z,16.93
2019-03-09T01:28:20.486Z,14.83
2019-03-09T01:30:50.938Z,19.67
2019-03-09T01:33:21.435Z,20.27
2019-03-09T01:35:51.878Z,18.73
2019-03-09T01:38:22.366Z,17.03
2019-03-09T01:40:52.873Z,17.80
2019-03-09T01:43:23.345Z,20.67
2019-03-09T01:45:54.934Z,24.37
2019-03-09T01:48:25.367Z,18.63
2019-03-09T01:50:55.834Z,19.10
2019-03-09T01:53:26.376Z,23.33
2019-03-09T01:55:56.825Z,20.70
2019-03-09T01:58:27.273Z,25.43
2019-03-09T02:00:57.758Z,21.33
2019-03-09T02:03:28.300Z,23.03
2019-03-09T02:05:58.809Z,22.23
2019-03-09T02:08:29.348Z,23.37
2019-03-09T02:10:59.904Z,21.00
2019-03-09T02:13:30.369Z,19.87
2019-03-09T02:16:01.217Z,20.43
2019-03-09T02:18:31.748Z,19.77
2019-03-09T02:21:02.346Z,20.60
2019-03-09T02:23:32.861Z,21.47
2019-03-09T02:26:03.433Z,20.83
2019-03-09T02:28:33.903Z,23.33
2019-03-09T02:31:04.503Z,20.37
2019-03-09T02:33:34.955Z,23.20
2019-03-09T02:36:05.448Z,22.90
2019-03-09T02:38:40.558Z,24.67
2019-03-09T02:41:11.058Z,21.63
2019-03-09T02:43:41.558Z,17.37
2019-03-09T02:46:11.999Z,16.77
2019-03-09T02:48:42.437Z,14.23
2019-03-09T02:51:12.942Z,17.33
2019-03-09T02:53:43.386Z,17.07
2019-03-09T02:56:13.952Z,15.17
2019-03-09T02:58:44.367Z,11.40
2019-03-09T03:01:26.292Z,8.83
2019-03-09T03:03:56.689Z,9.83
2019-03-09T03:06:27.149Z,9.40
2019-03-09T03:08:57.583Z,9.93
2019-03-09T03:11:28.245Z,9.10
2019-03-09T03:13:58.791Z,12.23
2019-03-09T03:16:30.421Z,9.60
2019-03-09T03:19:00.841Z,12.10
2019-03-09T03:21:31.314Z,7.73
2019-03-09T03:24:01.744Z,14.10
2019-03-09T03:26:32.333Z,9.53
2019-03-09T03:29:02.745Z,16.20
2019-03-09T03:31:33.221Z,18.10
2019-03-09T03:34:03.775Z,17.33
2019-03-09T03:36:34.146Z,19.67
2019-03-09T03:39:06.568Z,16.30
2019-03-09T03:41:37.222Z,17.30
2019-03-09T03:44:07.746Z,15.27
2019-03-09T03:46:38.280Z,13.27
2019-03-09T03:49:08.744Z,15.57
2019-03-09T03:51:39.277Z,14.27
2019-03-09T03:54:09.784Z,14.43
2019-03-09T03:56:40.230Z,14.87
2019-03-09T03:59:10.733Z,14.57
2019-03-09T04:01:41.192Z,14.77
2019-03-09T04:04:11.675Z,21.03
2019-03-09T04:06:42.629Z,14.60
2019-03-09T04:09:13.548Z,11.77
2019-03-09T04:11:44.073Z,14.87
2019-03-09T04:14:14.542Z,13.90
2019-03-09T04:16:45.087Z,13.40
2019-03-09T04:19:15.511Z,15.10
2019-03-09T04:21:46.025Z,17.53
2019-03-09T04:24:16.567Z,17.27
2019-03-09T04:26:47.048Z,14.53
2019-03-09T04:29:17.633Z,13.13
2019-03-09T04:31:48.164Z,15.50
2019-03-09T04:34:19.728Z,11.23
2019-03-09T04:36:58.018Z,11.83
2019-03-09T04:39:28.503Z,7.73
2019-03-09T04:41:58.941Z,13.10
2019-03-09T04:44:29.438Z,10.57
2019-03-09T04:47:00.131Z,10.67
2019-03-09T04:49:30.668Z,6.57
2019-03-09T04:52:01.173Z,12.00
2019-03-09T04:54:31.678Z,7.60
2019-03-09T04:57:02.245Z,9.37
2019-03-09T04:59:32.734Z,11.00
2019-03-09T05:02:03.206Z,9.47
2019-03-09T05:04:53.263Z,7.13
2019-03-09T05:07:44.765Z,10.60
2019-03-09T05:10:39.521Z,9.73
2019-03-09T05:13:22.169Z,8.80
2019-03-09T05:15:52.645Z,6.30
2019-03-09T05:18:23.037Z,7.60
2019-03-09T05:20:53.677Z,6.23
2019-03-09T05:23:24.081Z,8.13
2019-03-09T05:25:54.553Z,9.50
2019-03-09T05:28:24.971Z,9.07
2019-03-09T05:30:55.415Z,4.83
2019-03-09T05:33:25.904Z,6.57
2019-03-09T05:35:56.399Z,6.90
2019-03-09T05:38:26.827Z,10.53
2019-03-09T05:40:57.348Z,6.30
2019-03-09T05:43:27.832Z,4.30
2019-03-09T05:45:58.347Z,6.80
2019-03-09T05:48:28.808Z,4.60
2019-03-09T05:50:59.259Z,4.77
2019-03-09T05:53:29.699Z,5.47
2019-03-09T05:56:00.110Z,4.57
2019-03-09T05:58:32.210Z,6.93
2019-03-09T06:01:02.636Z,5.83
2019-03-09T06:03:33.114Z,4.70
2019-03-09T06:06:06.440Z,24.37
2019-03-09T06:08:37.164Z,3.23
2019-03-09T06:11:09.881Z,5.30
2019-03-09T06:13:40.362Z,7.20
2019-03-09T06:16:10.794Z,8.93
2019-03-09T06:18:41.364Z,6.20
2019-03-09T06:21:11.828Z,5.20
2019-03-09T06:23:42.284Z,12.50
2019-03-09T06:26:12.765Z,3.20
2019-03-09T06:28:43.405Z,8.87
2019-03-09T06:31:13.837Z,12.30
2019-03-09T06:33:46.001Z,10.17
2019-03-09T06:36:36.751Z,3.13
2019-03-09T06:39:27.303Z,7.63
2019-03-09T06:42:38.689Z,5.30
2019-03-09T06:45:11.717Z,6.20
2019-03-09T06:47:42.286Z,14.40
2019-03-09T06:50:17.611Z,11.77
2019-03-09T06:52:49.061Z,9.03
2019-03-09T06:55:19.558Z,12.17
2019-03-09T06:57:50.126Z,7.23
2019-03-09T07:00:34.540Z,9.60
2019-03-09T07:03:05.548Z,11.90
2019-03-09T07:05:35.990Z,6.10
2019-03-09T07:08:06.400Z,4.07
2019-03-09T07:10:36.930Z,6.20
2019-03-09T07:13:07.449Z,4.47
2019-03-09T07:15:40.023Z,4.67
2019-03-09T07:18:22.601Z,6.23
2019-03-09T07:20:53.144Z,5.27
2019-03-09T07:23:23.714Z,6.77
2019-03-09T07:25:54.306Z,6.57
2019-03-09T07:28:25.042Z,6.60
2019-03-09T07:30:55.524Z,5.07
2019-03-09T07:33:26.004Z,3.73
2019-03-09T07:35:56.484Z,2.73
2019-03-09T07:38:26.955Z,7.93
2019-03-09T07:40:57.648Z,3.97
2019-03-09T07:43:28.183Z,8.83
2019-03-09T07:45:58.686Z,3.57
2019-03-09T07:48:29.758Z,5.23
2019-03-09T07:51:00.284Z,5.10
2019-03-09T07:53:30.746Z,3.33
2019-03-09T07:56:01.239Z,3.83
2019-03-09T07:58:31.772Z,6.00
2019-03-09T08:01:02.257Z,10.37
2019-03-09T08:03:32.689Z,5.33
2019-03-09T08:06:03.156Z,4.17
2019-03-09T08:08:33.721Z,13.40
2019-03-09T08:11:04.193Z,10.33
2019-03-09T08:13:34.733Z,1.60
2019-03-09T08:16:07.851Z,11.53
2019-03-09T08:18:38.678Z,12.87
2019-03-09T08:21:09.205Z,5.97
2019-03-09T08:23:39.892Z,5.30
2019-03-09T08:26:10.404Z,4.83
2019-03-09T08:28:41.133Z,2.87
2019-03-09T08:31:11.658Z,4.13
2019-03-09T08:33:42.412Z,3.63
2019-03-09T08:36:12.967Z,13.27
2019-03-09T08:38:43.588Z,3.07
2019-03-09T08:41:14.142Z,6.27
2019-03-09T08:43:44.640Z,3.97
2019-03-09T08:46:15.239Z,12.43
2019-03-09T08:48:46.826Z,4.87
2019-03-09T08:51:17.472Z,2.97
2019-03-09T08:53:47.971Z,9.00
2019-03-09T08:56:18.546Z,3.73
2019-03-09T08:58:49.011Z,6.80
2019-03-09T09:01:19.502Z,6.90
2019-03-09T09:03:49.962Z,5.60
2019-03-09T09:06:20.442Z,4.87
2019-03-09T09:08:50.928Z,26.80
2019-03-09T09:11:21.409Z,6.17
2019-03-09T09:13:52.007Z,7.67
2019-03-09T09:16:22.637Z,4.60
2019-03-09T09:18:53.063Z,5.70
2019-03-09T09:21:23.553Z,12.17
2019-03-09T09:23:53.974Z,5.03
2019-03-09T09:26:24.469Z,2.93
2019-03-09T09:28:54.905Z,5.83
2019-03-09T09:31:25.428Z,6.57
2019-03-09T09:33:55.879Z,4.27
2019-03-09T09:36:26.533Z,13.30
2019-03-09T09:38:56.969Z,2.40
2019-03-09T09:41:28.673Z,6.77
2019-03-09T09:43:59.214Z,9.10
2019-03-09T09:46:29.633Z,12.30
2019-03-09T09:49:00.129Z,2.43
2019-03-09T09:51:30.609Z,7.90
2019-03-09T09:54:01.217Z,24.50
2019-03-09T09:56:31.825Z,13.20
2019-03-09T09:59:02.488Z,42.07
2019-03-09T10:01:33.159Z,6.23
2019-03-09T10:04:04.927Z,12.63
2019-03-09T10:06:35.581Z,3.97
2019-03-09T10:09:07.950Z,4.23
2019-03-09T10:11:38.767Z,11.67
2019-03-09T10:14:09.222Z,10.17
2019-03-09T10:16:39.649Z,7.80
2019-03-09T10:19:11.193Z,3.33
2019-03-09T10:21:42.736Z,4.80
2019-03-09T10:24:13.312Z,10.57
2019-03-09T10:26:43.821Z,4.10
2019-03-09T10:29:14.444Z,10.43
2019-03-09T10:31:44.880Z,14.93
2019-03-09T10:34:15.463Z,4.67
2019-03-09T10:36:45.962Z,14.07
2019-03-09T10:39:16.455Z,47.13
2019-03-09T10:41:47.268Z,40.90
2019-03-09T10:44:20.136Z,5.63
2019-03-09T10:46:52.791Z,11.43
2019-03-09T10:49:23.324Z,10.43
2019-03-09T10:51:56.203Z,10.03
2019-03-09T10:54:35.810Z,21.23
2019-03-09T10:56:58.918Z,24.80
2019-03-09T10:59:29.425Z,46.20
2019-03-09T11:01:59.967Z,7.37
2019-03-09T11:04:30.475Z,5.60
2019-03-09T11:07:01.021Z,10.57
2019-03-09T11:09:31.683Z,28.07
2019-03-09T11:12:02.267Z,6.40
2019-03-09T11:14:32.790Z,6.37
2019-03-09T11:17:03.250Z,6.37
2019-03-09T11:19:33.677Z,6.90
2019-03-09T11:22:04.152Z,8.90
2019-03-09T11:24:34.747Z,3.23
2019-03-09T11:27:05.346Z,3.57
2019-03-09T11:29:35.879Z,5.33
2019-03-09T11:32:06.391Z,2.03
2019-03-09T11:34:36.905Z,3.10
2019-03-09T11:37:07.392Z,6.70
2019-03-09T11:39:37.841Z,2.33
2019-03-09T11:42:09.191Z,1.77
2019-03-09T11:44:39.703Z,11.03
2019-03-09T11:47:10.311Z,11.00
2019-03-09T11:49:40.698Z,12.27
2019-03-09T11:52:19.577Z,11.93
2019-03-09T11:54:43.356Z,2.63
2019-03-09T11:57:13.829Z,8.57
2019-03-09T11:59:44.297Z,9.80
2019-03-09T12:02:14.847Z,8.83
2019-03-09T12:04:47.084Z,22.40
2019-03-09T12:07:17.457Z,5.23
2019-03-09T12:09:47.988Z,3.03
2019-03-09T12:12:18.515Z,3.13
2019-03-09T12:14:48.999Z,18.60
2019-03-09T12:17:19.495Z,9.10
2019-03-09T12:19:50.258Z,1.47
2019-03-09T12:22:20.741Z,2.03
2019-03-09T12:24:53.862Z,1.70
2019-03-09T12:27:24.414Z,3.60
2019-03-09T12:29:55.011Z,2.20
2019-03-09T12:32:25.450Z,7.27
2019-03-09T12:34:55.941Z,5.57
2019-03-09T12:37:26.485Z,3.10
2019-03-09T12:39:56.951Z,1.67
2019-03-09T12:42:27.616Z,4.90
2019-03-09T12:44:58.119Z,2.30
2019-03-09T12:47:28.608Z,3.93
2019-03-09T12:50:00.166Z,7.03
2019-03-09T12:52:30.885Z,4.60
2019-03-09T12:55:01.411Z,5.97
2019-03-09T12:57:31.915Z,3.97
2019-03-09T13:00:02.446Z,5.00
2019-03-09T13:02:33.974Z,3.40
2019-03-09T13:05:04.606Z,8.10
2019-03-09T13:07:35.167Z,2.47
2019-03-09T13:10:05.970Z,4.83
2019-03-09T13:12:36.863Z,3.00
2019-03-09T13:15:07.630Z,9.27
2019-03-09T13:17:38.125Z,7.00
2019-03-09T13:20:08.811Z,4.17
2019-03-09T13:22:39.437Z,5.63
2019-03-09T13:25:10.045Z,5.57
2019-03-09T13:27:41.007Z,3.37
2019-03-09T13:30:14.280Z,5.10
2019-03-09T13:32:44.863Z,7.90
2019-03-09T13:35:15.493Z,4.90
2019-03-09T13:37:45.924Z,2.63
2019-03-09T13:40:16.452Z,5.50
2019-03-09T13:42:46.988Z,4.03
2019-03-09T13:45:17.606Z,6.57
2019-03-09T13:47:48.194Z,5.27
2019-03-09T13:50:18.717Z,2.63
2019-03-09T13:52:49.342Z,3.67
2019-03-09T13:55:19.734Z,5.47
2019-03-09T13:57:50.340Z,5.10
2019-03-09T14:00:20.801Z,5.10
2019-03-09T14:02:51.465Z,3.80
2019-03-09T14:05:22.024Z,4.00
2019-03-09T14:07:52.545Z,5.27
2019-03-09T14:10:23.017Z,3.67
2019-03-09T14:12:53.570Z,9.80
2019-03-09T14:15:24.046Z,4.87
2019-03-09T14:17:54.534Z,4.93
2019-03-09T14:20:25.298Z,4.60
2019-03-09T14:22:55.830Z,8.33
2019-03-09T14:25:26.408Z,5.63
2019-03-09T14:27:56.922Z,7.37
2019-03-09T14:30:27.425Z,3.40
2019-03-09T14:32:58.011Z,6.30
2019-03-09T14:35:28.491Z,7.30
2019-03-09T14:37:58.960Z,6.40
2019-03-09T14:40:29.395Z,4.50
2019-03-09T14:43:00.293Z,9.70
2019-03-09T14:45:30.746Z,6.90
2019-03-09T14:48:01.210Z,3.57
2019-03-09T14:50:32.108Z,5.33
2019-03-09T14:53:02.619Z,7.17
2019-03-09T14:55:33.077Z,10.43
2019-03-09T14:58:03.507Z,5.33
2019-03-09T15:00:33.986Z,5.70
2019-03-09T15:03:04.556Z,7.90
2019-03-09T15:05:35.104Z,4.97
2019-03-09T15:08:05.531Z,5.10
2019-03-09T15:10:37.091Z,7.30
2019-03-09T15:13:07.617Z,4.27
2019-03-09T15:15:38.088Z,10.90
2019-03-09T15:18:08.526Z,4.80
2019-03-09T15:20:39.073Z,4.70
2019-03-09T15:23:09.571Z,6.83
2019-03-09T15:25:41.094Z,6.47
2019-03-09T15:28:11.640Z,11.27
2019-03-09T15:30:42.182Z,6.53
2019-03-09T15:33:12.759Z,6.23
2019-03-09T15:35:43.189Z,5.00
2019-03-09T15:38:14.168Z,5.93
2019-03-09T15:40:44.655Z,8.83
2019-03-09T15:43:15.299Z,12.47
2019-03-09T15:45:45.750Z,7.60
2019-03-09T15:48:17.380Z,6.90
2019-03-09T15:50:47.904Z,5.20
2019-03-09T15:53:18.429Z,6.23
2019-03-09T15:55:48.872Z,10.03
2019-03-09T15:58:19.320Z,7.97
2019-03-09T16:00:49.793Z,10.43
2019-03-09T16:03:20.286Z,7.53
2019-03-09T16:05:50.762Z,6.50
2019-03-09T16:08:21.240Z,9.13
2019-03-09T16:10:52.731Z,7.77
2019-03-09T16:13:24.412Z,8.57
2019-03-09T16:15:54.978Z,9.90
2019-03-09T16:18:25.476Z,7.57
2019-03-09T16:20:55.950Z,10.17
2019-03-09T16:23:26.433Z,9.83
2019-03-09T16:25:56.874Z,8.20
2019-03-09T16:28:27.316Z,10.10
2019-03-09T16:30:57.870Z,8.70
2019-03-09T16:33:28.331Z,13.97
2019-03-09T16:35:58.749Z,10.67
2019-03-09T16:38:29.269Z,10.40
2019-03-09T16:40:59.798Z,10.67
2019-03-09T16:43:30.322Z,9.83
2019-03-09T16:46:00.871Z,8.67
2019-03-09T16:48:31.399Z,10.23
2019-03-09T16:51:01.906Z,10.90
2019-03-09T16:53:32.440Z,10.20
2019-03-09T16:56:02.967Z,15.30
2019-03-09T16:58:33.568Z,11.87
2019-03-09T17:01:04.005Z,13.03
2019-03-09T17:03:34.528Z,14.03
2019-03-09T17:06:04.964Z,10.90
2019-03-09T17:08:35.784Z,9.40
2019-03-09T17:11:06.209Z,9.97
2019-03-09T17:13:36.658Z,12.10
2019-03-09T17:16:07.127Z,11.13
2019-03-09T17:18:37.640Z,9.03
2019-03-09T17:21:08.116Z,7.57
2019-03-09T17:23:38.613Z,8.23
2019-03-09T17:26:09.198Z,10.60
2019-03-09T17:28:39.669Z,10.03
2019-03-09T17:31:10.204Z,9.40
2019-03-09T17:33:40.710Z,8.60
2019-03-09T17:36:11.302Z,7.30
2019-03-09T17:38:41.794Z,11.10
2019-03-09T17:41:12.295Z,10.77
2019-03-09T17:43:42.865Z,8.13
2019-03-09T17:46:13.350Z,12.60
2019-03-09T17:48:43.861Z,12.07
2019-03-09T17:51:14.396Z,9.67
2019-03-09T17:53:46.518Z,8.23
2019-03-09T17:56:17.070Z,8.47
2019-03-09T17:58:47.723Z,9.00
2019-03-09T18:01:18.157Z,7.30
2019-03-09T18:03:48.627Z,7.30
2019-03-09T18:06:19.085Z,8.60
2019-03-09T18:08:49.543Z,8.03
2019-03-09T18:11:20.088Z,9.40
2019-03-09T18:13:50.559Z,7.83
2019-03-09T18:16:21.162Z,8.43
2019-03-09T18:18:51.762Z,9.57
2019-03-09T18:21:22.586Z,8.37
2019-03-09T18:23:53.146Z,11.40
2019-03-09T18:26:23.640Z,16.13
2019-03-09T18:28:54.135Z,10.37
2019-03-09T18:31:24.567Z,9.07
2019-03-09T18:33:55.014Z,12.37
2019-03-09T18:36:25.496Z,12.27
2019-03-09T18:38:56.053Z,8.27
2019-03-09T18:41:26.456Z,9.07
2019-03-09T18:43:57.026Z,13.53
2019-03-09T18:46:27.424Z,10.20
2019-03-09T18:48:57.933Z,10.47
2019-03-09T18:51:28.391Z,9.50
2019-03-09T18:53:58.943Z,6.93
2019-03-09T18:56:29.384Z,9.50
2019-03-09T18:58:59.878Z,10.40
2019-03-09T19:01:30.464Z,6.53
2019-03-09T19:04:02.512Z,6.67
2019-03-09T19:06:33.080Z,6.43
2019-03-09T19:09:04.280Z,14.80
2019-03-09T19:11:36.360Z,16.90
2019-03-09T19:14:07.031Z,6.73
2019-03-09T19:16:37.395Z,4.80
2019-03-09T19:19:07.957Z,7.17
2019-03-09T19:21:38.377Z,7.47
2019-03-09T19:24:08.921Z,7.50
2019-03-09T19:26:39.395Z,8.40
2019-03-09T19:29:09.915Z,6.40
2019-03-09T19:31:41.159Z,9.77
2019-03-09T19:34:11.780Z,5.47
2019-03-09T19:36:42.504Z,8.20
2019-03-09T19:39:13.445Z,8.23
2019-03-09T19:41:44.029Z,10.80
2019-03-09T19:44:14.770Z,8.57
2019-03-09T19:46:45.361Z,9.67
2019-03-09T19:49:15.953Z,9.23
2019-03-09T19:51:46.438Z,8.43
2019-03-09T19:54:16.952Z,6.60
2019-03-09T19:56:47.407Z,6.27
2019-03-09T19:59:17.876Z,7.83
2019-03-09T20:01:48.389Z,10.07
2019-03-09T20:04:18.897Z,6.83
2019-03-09T20:06:49.457Z,8.13
2019-03-09T20:09:20.182Z,8.90
2019-03-09T20:11:50.705Z,9.57
2019-03-09T20:14:21.367Z,9.63
2019-03-09T20:16:51.927Z,7.90
2019-03-09T20:19:22.613Z,9.43
2019-03-09T20:21:53.170Z,10.10
2019-03-09T20:24:23.824Z,11.53
2019-03-09T20:26:54.494Z,8.53
2019-03-09T20:29:25.122Z,8.43
2019-03-09T20:31:55.887Z,12.57
2019-03-09T20:34:26.384Z,7.10
2019-03-09T20:36:59.297Z,6.80
2019-03-09T20:39:29.863Z,11.13
2019-03-09T20:42:00.441Z,9.20
2019-03-09T20:44:33.213Z,13.90
2019-03-09T20:47:03.851Z,9.50
2019-03-09T20:49:34.490Z,5.93
2019-03-09T20:52:05.051Z,6.57
2019-03-09T20:54:35.753Z,9.87
2019-03-09T20:57:06.246Z,9.27
2019-03-09T20:59:36.805Z,10.03
2019-03-09T21:02:07.263Z,6.97
2019-03-09T21:04:37.799Z,11.90
2019-03-09T21:07:08.266Z,9.20
2019-03-09T21:09:38.790Z,7.83
2019-03-09T21:12:09.306Z,9.67
2019-03-09T21:14:39.938Z,8.03
2019-03-09T21:17:10.393Z,6.53
2019-03-09T21:19:40.966Z,4.23
2019-03-09T21:22:11.495Z,5.27
2019-03-09T21:24:43.139Z,6.50
2019-03-09T21:27:13.683Z,7.30
2019-03-09T21:29:44.252Z,7.10
2019-03-09T21:32:14.773Z,7.37
2019-03-09T21:34:45.318Z,6.60
2019-03-09T21:37:15.934Z,5.67
2019-03-09T21:39:46.410Z,6.10
2019-03-09T21:42:17.012Z,4.57
2019-03-09T21:44:47.442Z,4.77
2019-03-09T21:47:18.052Z,4.77
2019-03-09T21:49:48.467Z,3.70
2019-03-09T21:52:18.952Z,4.43
2019-03-09T21:54:49.386Z,5.63
2019-03-09T21:57:20.450Z,3.80
2019-03-09T21:59:50.901Z,5.27
2019-03-09T22:02:21.472Z,5.70
2019-03-09T22:04:52.075Z,6.93
2019-03-09T22:07:24.932Z,6.47
2019-03-09T22:09:55.524Z,5.70
2019-03-09T22:12:26.114Z,4.77
2019-03-09T22:14:56.712Z,4.70
2019-03-09T22:17:27.218Z,3.93
2019-03-09T22:19:57.700Z,4.67
2019-03-09T22:22:28.277Z,3.13
2019-03-09T22:24:59.035Z,3.13
2019-03-09T22:27:29.596Z,4.20
2019-03-09T22:30:00.338Z,1.57
2019-03-09T22:32:30.848Z,2.57
2019-03-09T22:35:02.392Z,2.80
2019-03-09T22:37:34.107Z,5.13
2019-03-09T22:40:04.757Z,5.87
2019-03-09T22:42:37.585Z,1.67
2019-03-09T22:45:09.028Z,2.50
2019-03-09T22:47:39.606Z,3.27
2019-03-09T22:50:11.658Z,5.50
2019-03-09T22:52:42.302Z,2.27
2019-03-09T22:55:12.829Z,2.20
2019-03-09T22:57:43.348Z,5.83
2019-03-09T23:00:18.519Z,3.23
2019-03-09T23:02:50.606Z,3.17
2019-03-09T23:05:21.186Z,2.83
2019-03-09T23:07:51.717Z,3.53
2019-03-09T23:10:22.292Z,3.83
2019-03-09T23:12:52.748Z,2.00
2019-03-09T23:15:23.293Z,2.30
2019-03-09T23:17:53.763Z,1.87
2019-03-09T23:20:24.326Z,2.37
2019-03-09T23:22:54.783Z,3.97
2019-03-09T23:25:27.656Z,4.03
2019-03-09T23:27:58.133Z,4.70
2019-03-09T23:30:31.315Z,11.80
2019-03-09T23:33:01.857Z,5.63
2019-03-09T23:35:32.389Z,6.70
2019-03-09T23:38:02.801Z,5.10
2019-03-09T23:40:33.413Z,5.93
2019-03-09T23:43:03.972Z,20.80
2019-03-09T23:45:34.653Z,7.70
2019-03-09T23:48:07.078Z,15.53
2019-03-09T23:50:37.554Z,2.63
2019-03-09T23:53:08.003Z,2.63
2019-03-09T23:55:40.780Z,3.77
2019-03-09T23:58:11.295Z,2.20
